Terminal Aerodrome Forecast
Issued by NWS Duluth, MN

Home | Current Version | Previous Version | Text Only | Print | Product List | Glossary On
Versions: 1 2 3 4 5 6 7 8 9 10 11 12 13 14 15
662
FTUS43 KDLH 111736
TAFDLH
TAF
KDLH 111736Z 1118/1218 29007KT P6SM BKN090
     FM112200 27009KT P6SM BKN035 BKN060
     FM120600 32011KT P6SM SCT035
     FM121200 32015G30KT P6SM FEW025=

USA.gov is the U.S. government's official web portal to all federal, state and local government web resources and services.